A- A+ FrançaisEnglishEspañol中国

Services sur Internet Soldes sur Internet Des idées de cadeaux Météo Météo aéro

La météo à : Autours de vous Bordeaux-MerignacBiscarrosse-Parentis Tarbes-Lourdes-PyrénéesSt-Pierre-D'oleron

La météo aéronautique pour les pilotes, la préparation du vol avec les METAR (METeorological Aerodrome Report, message d'observation des conditions météorologiques pour l'aviation) et Les TAF (Terminal Aerodrome Forecast : message de prévision à court terme des conditions météorologiques pour l'aviation). Et les autres ressources comme les VAC (Visual Approch Chart) et les NOTAM (Notice To Airman) pour préprer les vols.

Aéroport Victoria Intl (Canada) / OACI CYYJ / IATA YYJ

L'altitude de l'aéroport Victoria Intl est de 19 mètres. Il est situé à proximité de Victoria (Canada). La météo générale à 5 jours est disponible pour Brentwood Bay situé à 7.4 km.

METAR de l'aéroport Victoria Intl - CYYJ

CYYJ 211200Z 24005KT 15SM FEW200 00/M00 A3004 RMK CC1 CC TR SLP173

Décodage du METAR de l'aéroport Victoria Intl (CA)

METAR émis par CYYJ le jeudi 21 novembre 2019 à 12:00 heure TU, il y a 8 minutes.

La visibilité est de 24.1 km = 15 sm.

La température est de 0°C et le point rosée est de 0°C. Ce qui correspond à 100% d'humidité relative.

Le QNH est de 1017 hPa = 30.03 inHg

Vent de 5 kt = 9 km/h, orienté à 240°.

Nuages : Quelques nuages à 20000 ft = 6100 mètres.

RMK CC1 CC TR SLP173

TAF de l'aéroport Victoria Intl - CYYJ

CYYJ 211139Z 2112/2212 25005KT P6SM FEW220 BECMG 2120/2122 12005KT FM220900 27005KT P6SM FEW008 SCT012 TEMPO 2209/2212 4SM BR SCT008 BKN012 RMK NXT FCST BY 211800Z

CYYJ 211139Z 2112/2212 25005KT P6SM quelques nuages à 220 devenant 2120/2122 12005KT FM220900 27005KT P6SM quelques nuages à 008 nuages épars à 012 temporairement 2209/2212 4SM brume nuages épars à 008 couverture nuageuse fragmentée à 012 remarques NXT trombe ST BY 211800Z

Aéroport à proximité de Victoria Intl

Météo générale à 5 jours à Brentwood Bay (7.4 km)Aéroport Friday Harbour (33 km)Aéroport Orcas Is (38 km)Aéroport Nanaimo (56 km)Aéroport Port Angeles CGAS (56 km)Aéroport Boundary Bay (56 km)Aéroport Fairchild (59 km)

Vue aérienne de l'aéroport Victoria Intl

NOTAM de l'aéroport Victoria Intl

Les NOTAM sont fournis sans aucune garantie de leur actualité. Le pilote est le seul responsable de la vérification de sa validité avant de l'utiliser opérationnellement pour préparer un vol ou l'utiliser lors de sa navigation.

Pas de NOTAM

Sources des données